createdAt,value
2023-04-23T00:01:33.025Z,9.55
2023-04-23T00:04:06.978Z,9.48
2023-04-23T00:06:40.251Z,9.45
2023-04-23T00:09:16.885Z,9.40
2023-04-23T00:11:51.485Z,9.29
2023-04-23T00:14:25.455Z,9.26
2023-04-23T00:16:57.393Z,9.20
2023-04-23T00:19:29.737Z,9.12
2023-04-23T00:22:07.237Z,9.08
2023-04-23T00:24:40.030Z,9.04
2023-04-23T00:27:13.096Z,9.03
2023-04-23T00:29:46.931Z,9.03
2023-04-23T00:32:19.585Z,9.00
2023-04-23T00:34:52.138Z,8.99
2023-04-23T00:37:26.742Z,8.91
2023-04-23T00:39:59.228Z,8.89
2023-04-23T00:42:32.295Z,8.91
2023-04-23T00:45:06.521Z,8.92
2023-04-23T00:47:39.251Z,8.91
2023-04-23T00:50:13.570Z,8.90
2023-04-23T00:52:46.328Z,8.83
2023-04-23T00:55:21.592Z,8.81
2023-04-23T00:57:54.657Z,8.77
2023-04-23T01:00:27.503Z,8.73
2023-04-23T01:03:02.428Z,8.68
2023-04-23T01:05:35.329Z,8.67
2023-04-23T01:08:08.400Z,8.66
2023-04-23T01:10:41.531Z,8.65
2023-04-23T01:13:16.024Z,8.64
2023-04-23T01:15:49.355Z,8.65
2023-04-23T01:18:25.112Z,8.68
2023-04-23T01:20:58.276Z,8.61
2023-04-23T01:23:31.728Z,8.53
2023-04-23T01:26:04.455Z,8.52
2023-04-23T01:28:37.613Z,8.50
2023-04-23T01:31:11.134Z,8.48
2023-04-23T01:33:48.694Z,8.44
2023-04-23T01:36:21.509Z,8.43
2023-04-23T01:38:56.284Z,8.42
2023-04-23T01:41:28.751Z,8.38
2023-04-23T01:44:02.277Z,8.31
2023-04-23T01:46:37.139Z,8.18
2023-04-23T01:49:10.087Z,8.16
2023-04-23T01:51:43.946Z,8.12
2023-04-23T01:54:16.635Z,8.04
2023-04-23T01:56:49.189Z,7.99
2023-04-23T01:59:24.306Z,7.93
2023-04-23T02:01:57.054Z,7.86
2023-04-23T02:04:30.107Z,7.83
2023-04-23T02:07:03.290Z,7.83
2023-04-23T02:09:36.054Z,7.77
2023-04-23T02:12:09.134Z,7.75
2023-04-23T02:14:42.186Z,7.78
2023-04-23T02:17:15.948Z,7.78
2023-04-23T02:19:49.027Z,7.77
2023-04-23T02:22:22.732Z,7.73
2023-04-23T02:24:56.332Z,7.66
2023-04-23T02:27:27.213Z,7.59
2023-04-23T02:30:00.452Z,7.47
2023-04-23T02:32:33.597Z,7.49
2023-04-23T02:35:07.741Z,7.43
2023-04-23T02:37:40.799Z,7.40
2023-04-23T02:40:14.712Z,7.38
2023-04-23T02:42:47.282Z,7.36
2023-04-23T02:45:20.383Z,7.31
2023-04-23T02:47:56.305Z,7.23
2023-04-23T02:50:29.157Z,7.15
2023-04-23T02:53:02.181Z,7.07
2023-04-23T02:55:35.108Z,6.97
2023-04-23T02:58:07.869Z,6.90
2023-04-23T03:00:41.510Z,6.87
2023-04-23T03:03:14.823Z,6.85
2023-04-23T03:05:47.800Z,6.80
2023-04-23T03:08:20.268Z,6.69
2023-04-23T03:10:55.554Z,6.62
2023-04-23T03:13:28.530Z,6.61
2023-04-23T03:16:01.273Z,6.64
2023-04-23T03:18:33.934Z,6.69
2023-04-23T03:21:08.512Z,6.68
2023-04-23T03:23:41.483Z,6.67
2023-04-23T03:26:14.376Z,6.68
2023-04-23T03:28:47.577Z,6.71
2023-04-23T03:31:20.392Z,6.66
2023-04-23T03:33:53.582Z,6.65
2023-04-23T03:36:30.552Z,6.65
2023-04-23T03:39:03.632Z,6.64
2023-04-23T03:41:46.777Z,6.65
2023-04-23T03:44:20.241Z,6.62
2023-04-23T03:46:53.992Z,6.65
2023-04-23T03:49:25.168Z,6.66
2023-04-23T03:51:58.106Z,6.65
2023-04-23T03:54:30.909Z,6.70
2023-04-23T03:57:19.101Z,6.69
2023-04-23T04:00:21.350Z,6.71
2023-04-23T04:02:54.112Z,6.74
2023-04-23T04:05:29.875Z,6.79
2023-04-23T04:08:05.107Z,6.84
2023-04-23T04:10:37.661Z,6.87
2023-04-23T04:13:10.211Z,6.91
2023-04-23T04:15:43.842Z,6.93
2023-04-23T04:18:14.622Z,6.84
2023-04-23T04:20:47.371Z,6.78
2023-04-23T04:23:20.052Z,6.84
2023-04-23T04:25:56.903Z,6.91
2023-04-23T04:28:29.753Z,6.98
2023-04-23T04:31:03.439Z,7.04
2023-04-23T04:33:36.735Z,7.05
2023-04-23T04:36:10.440Z,7.09
2023-04-23T04:38:44.248Z,7.03
2023-04-23T04:41:15.016Z,6.99
2023-04-23T04:43:48.693Z,7.00
2023-04-23T04:46:20.524Z,7.06
2023-04-23T04:48:53.215Z,7.02
2023-04-23T04:51:25.878Z,7.11
2023-04-23T04:53:58.963Z,7.24
2023-04-23T04:56:31.728Z,7.39
2023-04-23T04:59:06.039Z,7.54
2023-04-23T05:01:38.756Z,7.69
2023-04-23T05:04:11.600Z,7.75
2023-04-23T05:06:44.847Z,7.85
2023-04-23T05:09:18.798Z,8.07
2023-04-23T05:11:52.028Z,8.30
2023-04-23T05:14:26.526Z,8.55
2023-04-23T05:16:59.887Z,8.82
2023-04-23T05:19:34.009Z,9.01
2023-04-23T05:22:06.568Z,9.10
2023-04-23T05:24:40.094Z,9.23
2023-04-23T05:27:13.139Z,9.39
2023-04-23T05:29:46.018Z,9.56
2023-04-23T05:32:18.602Z,9.70
2023-04-23T05:34:51.649Z,9.93
2023-04-23T05:37:25.015Z,10.16
2023-04-23T05:39:58.531Z,10.46
2023-04-23T05:42:32.689Z,10.70
2023-04-23T05:45:08.066Z,10.96
2023-04-23T05:47:41.631Z,11.28
2023-04-23T05:50:15.166Z,11.47
2023-04-23T05:52:47.499Z,11.66
2023-04-23T05:55:21.316Z,11.85
2023-04-23T05:57:53.949Z,12.00
2023-04-23T06:00:27.706Z,12.07
2023-04-23T06:03:00.614Z,12.16
2023-04-23T06:05:33.634Z,12.37
2023-04-23T06:08:06.267Z,12.59
2023-04-23T06:10:40.686Z,12.83
2023-04-23T06:13:15.614Z,12.97
2023-04-23T06:15:50.307Z,12.91
2023-04-23T06:18:22.819Z,13.18
2023-04-23T06:20:57.586Z,13.40
2023-04-23T06:23:30.345Z,13.36
2023-04-23T06:26:04.796Z,13.54
2023-04-23T06:28:37.508Z,13.75
2023-04-23T06:31:40.123Z,13.93
2023-04-23T06:34:12.764Z,13.59
2023-04-23T06:36:45.654Z,13.77
2023-04-23T06:39:18.131Z,13.95
2023-04-23T06:41:51.368Z,14.14
2023-04-23T06:44:30.668Z,14.36
2023-04-23T06:47:03.702Z,14.51
2023-04-23T06:49:36.211Z,14.50
2023-04-23T06:52:09.286Z,14.57
2023-04-23T06:54:42.226Z,14.76
2023-04-23T06:57:15.348Z,14.87
2023-04-23T06:59:48.188Z,14.79
2023-04-23T07:02:22.123Z,14.87
2023-04-23T07:04:55.462Z,15.25
2023-04-23T07:07:28.227Z,15.42
2023-04-23T07:10:00.970Z,15.32
2023-04-23T07:12:33.748Z,15.49
2023-04-23T07:15:07.567Z,15.46
2023-04-23T07:17:40.188Z,15.55
2023-04-23T07:20:13.571Z,15.86
2023-04-23T07:22:48.191Z,16.02
2023-04-23T07:25:22.109Z,16.12
2023-04-23T07:27:56.069Z,16.00
2023-04-23T07:30:30.094Z,16.28
2023-04-23T07:33:03.081Z,16.52
2023-04-23T07:35:35.536Z,16.66
2023-04-23T07:38:08.269Z,16.88
2023-04-23T07:40:41.735Z,17.03
2023-04-23T07:43:15.273Z,16.89
2023-04-23T07:45:45.848Z,17.10
2023-04-23T07:48:19.156Z,17.15
2023-04-23T07:50:49.676Z,17.35
2023-04-23T07:53:24.117Z,17.46
2023-04-23T07:55:57.072Z,17.55
2023-04-23T07:58:29.923Z,17.60
2023-04-23T08:01:03.488Z,17.83
2023-04-23T08:03:36.506Z,18.06
2023-04-23T08:06:11.601Z,18.35
2023-04-23T08:08:44.551Z,18.48
2023-04-23T08:11:17.162Z,18.61
2023-04-23T08:13:51.647Z,18.74
2023-04-23T08:16:24.312Z,18.48
2023-04-23T08:19:05.636Z,18.64
2023-04-23T08:21:40.525Z,18.53
2023-04-23T08:24:11.910Z,18.63
2023-04-23T08:26:47.044Z,18.63
2023-04-23T08:29:20.334Z,18.62
2023-04-23T08:31:52.803Z,18.71
2023-04-23T08:34:26.065Z,18.71
2023-04-23T08:37:27.284Z,18.74
2023-04-23T08:40:05.564Z,18.79
2023-04-23T08:42:44.389Z,18.57
2023-04-23T08:45:17.574Z,18.60
2023-04-23T08:47:48.294Z,18.61
2023-04-23T08:50:21.981Z,18.64
2023-04-23T08:52:58.085Z,18.77
2023-04-23T08:55:31.845Z,18.59
2023-04-23T08:58:07.689Z,18.72
2023-04-23T09:00:40.938Z,18.87
2023-04-23T09:03:15.205Z,18.80
2023-04-23T09:05:48.492Z,19.22
2023-04-23T09:08:19.362Z,19.34
2023-04-23T09:10:53.548Z,19.33
2023-04-23T09:13:26.332Z,19.48
2023-04-23T09:15:59.589Z,19.51
2023-04-23T09:18:32.064Z,19.89
2023-04-23T09:21:05.602Z,20.15
2023-04-23T09:23:41.700Z,20.32
2023-04-23T09:26:24.034Z,20.31
2023-04-23T09:28:56.594Z,20.48
2023-04-23T09:31:29.793Z,20.70
2023-04-23T09:34:03.223Z,20.73
2023-04-23T09:36:37.425Z,20.75
2023-04-23T09:39:20.048Z,20.87
2023-04-23T09:41:55.338Z,20.60
2023-04-23T09:44:35.740Z,20.88
2023-04-23T09:47:16.160Z,21.06
2023-04-23T09:49:52.513Z,21.22
2023-04-23T09:52:25.654Z,21.30
2023-04-23T09:55:00.585Z,21.35
2023-04-23T09:57:33.931Z,21.40
2023-04-23T10:00:19.474Z,21.51
2023-04-23T10:02:54.303Z,21.24
2023-04-23T10:05:36.895Z,21.00
2023-04-23T10:08:18.559Z,21.11
2023-04-23T10:11:05.966Z,21.36
2023-04-23T10:13:43.425Z,21.51
2023-04-23T10:16:23.049Z,21.53
2023-04-23T10:19:01.873Z,21.70
2023-04-23T10:21:50.142Z,21.81
2023-04-23T10:24:28.936Z,21.83
2023-04-23T10:27:04.605Z,21.86
2023-04-23T10:29:38.119Z,21.95
2023-04-23T10:32:14.638Z,22.01
2023-04-23T10:34:48.389Z,22.06
2023-04-23T10:37:21.769Z,21.90
2023-04-23T10:39:58.364Z,21.54
2023-04-23T10:42:31.738Z,21.48
2023-04-23T10:45:22.565Z,21.38
2023-04-23T10:47:57.875Z,21.58
2023-04-23T10:50:32.964Z,21.76
2023-04-23T10:53:19.739Z,21.94
2023-04-23T10:55:52.473Z,22.12
2023-04-23T10:58:25.879Z,22.21
2023-04-23T11:00:59.021Z,22.25
2023-04-23T11:03:44.424Z,22.36
2023-04-23T11:06:22.680Z,22.34
2023-04-23T11:08:59.760Z,22.16
2023-04-23T11:11:45.450Z,21.95
2023-04-23T11:14:18.003Z,21.73
2023-04-23T11:16:52.171Z,21.88
2023-04-23T11:19:26.383Z,21.85
2023-04-23T11:22:06.562Z,21.75
2023-04-23T11:24:42.753Z,21.76
2023-04-23T11:27:17.863Z,21.82
2023-04-23T11:29:50.663Z,21.96
2023-04-23T11:32:25.865Z,22.03
2023-04-23T11:35:04.010Z,22.17
2023-04-23T11:37:43.169Z,22.39
2023-04-23T11:40:21.910Z,22.51
2023-04-23T11:42:59.427Z,22.52
2023-04-23T11:45:32.622Z,22.44
2023-04-23T11:48:06.260Z,22.29
2023-04-23T11:50:39.833Z,22.31
2023-04-23T11:53:15.271Z,22.15
2023-04-23T11:55:51.036Z,22.04
2023-04-23T11:58:23.851Z,22.09
2023-04-23T12:01:02.989Z,21.73
2023-04-23T12:03:35.839Z,21.40
2023-04-23T12:06:10.828Z,21.47
2023-04-23T12:08:44.357Z,21.67
2023-04-23T12:11:17.833Z,21.72
2023-04-23T12:13:51.104Z,21.82
2023-04-23T12:16:37.781Z,21.92
2023-04-23T12:19:11.978Z,22.22
2023-04-23T12:21:56.765Z,22.14
2023-04-23T12:24:31.402Z,21.68
2023-04-23T12:27:06.093Z,21.46
2023-04-23T12:29:39.058Z,21.12
2023-04-23T12:32:14.369Z,20.71
2023-04-23T12:34:57.116Z,20.70
2023-04-23T12:37:31.571Z,20.88
2023-04-23T12:40:07.469Z,21.09
2023-04-23T12:42:40.534Z,21.18
2023-04-23T12:45:14.473Z,21.20
2023-04-23T12:47:47.795Z,20.81
2023-04-23T12:50:23.366Z,21.03
2023-04-23T12:52:56.578Z,20.97
2023-04-23T12:55:31.488Z,20.93
2023-04-23T12:58:09.504Z,21.04
2023-04-23T13:00:42.548Z,20.95
2023-04-23T13:03:15.940Z,20.94
2023-04-23T13:05:49.439Z,20.79
2023-04-23T13:08:22.181Z,21.02
2023-04-23T13:10:55.341Z,20.91
2023-04-23T13:13:27.947Z,21.02
2023-04-23T13:16:01.056Z,21.08
2023-04-23T13:18:35.437Z,21.14
2023-04-23T13:21:08.731Z,21.24
2023-04-23T13:23:42.762Z,21.55
2023-04-23T13:26:15.841Z,21.67
2023-04-23T13:28:50.117Z,21.74
2023-04-23T13:31:23.235Z,21.80
2023-04-23T13:33:53.891Z,21.85
2023-04-23T13:36:26.870Z,21.35
2023-04-23T13:38:57.611Z,21.35
2023-04-23T13:41:31.383Z,21.36
2023-04-23T13:44:03.998Z,21.34
2023-04-23T13:46:38.251Z,21.28
2023-04-23T13:49:11.323Z,21.57
2023-04-23T13:51:43.952Z,21.37
2023-04-23T13:54:16.765Z,21.38
2023-04-23T13:56:50.802Z,21.46
2023-04-23T13:59:24.118Z,21.46
2023-04-23T14:01:59.122Z,21.46
2023-04-23T14:04:33.632Z,21.47
2023-04-23T14:07:06.600Z,21.21
2023-04-23T14:09:39.143Z,20.86
2023-04-23T14:12:12.635Z,20.82
2023-04-23T14:14:45.424Z,20.94
2023-04-23T14:17:16.904Z,21.21
2023-04-23T14:19:49.767Z,21.32
2023-04-23T14:22:21.059Z,21.44
2023-04-23T14:24:59.073Z,21.32
2023-04-23T14:27:34.150Z,21.27
2023-04-23T14:30:15.515Z,21.16
2023-04-23T14:32:50.569Z,21.00
2023-04-23T14:35:32.489Z,20.94
2023-04-23T14:38:14.936Z,21.19
2023-04-23T14:40:47.721Z,21.30
2023-04-23T14:43:20.581Z,21.36
2023-04-23T14:45:54.221Z,21.26
2023-04-23T14:48:27.946Z,21.52
2023-04-23T14:51:00.856Z,21.72
2023-04-23T14:53:31.999Z,21.87
2023-04-23T14:56:04.368Z,21.91
2023-04-23T14:58:37.469Z,21.99
2023-04-23T15:01:10.366Z,21.89
2023-04-23T15:03:42.204Z,21.75
2023-04-23T15:06:16.626Z,21.42
2023-04-23T15:08:49.429Z,21.21
2023-04-23T15:11:22.077Z,21.32
2023-04-23T15:14:04.556Z,21.34
2023-04-23T15:19:20.468Z,21.62
2023-04-23T15:21:53.410Z,21.62
2023-04-23T15:24:25.521Z,21.57
2023-04-23T15:26:59.691Z,21.44
2023-04-23T15:29:32.723Z,21.54
2023-04-23T15:32:05.470Z,21.52
2023-04-23T15:34:38.634Z,21.32
2023-04-23T15:37:09.313Z,21.52
2023-04-23T15:39:42.673Z,21.64
2023-04-23T15:42:18.670Z,21.64
2023-04-23T15:44:55.064Z,21.69
2023-04-23T15:47:27.937Z,21.82
2023-04-23T15:49:59.308Z,21.90
2023-04-23T15:52:32.753Z,21.90
2023-04-23T15:55:06.567Z,22.02
2023-04-23T15:57:39.084Z,22.10
2023-04-23T16:00:13.836Z,22.10
2023-04-23T16:02:46.654Z,21.75
2023-04-23T16:05:20.236Z,21.57
2023-04-23T16:07:53.230Z,21.41
2023-04-23T16:10:24.094Z,21.22
2023-04-23T16:12:58.764Z,21.04
2023-04-23T16:15:32.593Z,21.02
2023-04-23T16:18:06.543Z,20.88
2023-04-23T16:20:39.572Z,20.88
2023-04-23T16:23:13.614Z,20.79
2023-04-23T16:25:46.748Z,20.80
2023-04-23T16:28:17.578Z,20.71
2023-04-23T16:30:50.517Z,20.64
2023-04-23T16:33:24.251Z,20.54
2023-04-23T16:35:57.571Z,20.48
2023-04-23T16:38:30.272Z,20.36
2023-04-23T16:41:05.050Z,20.33
2023-04-23T16:43:37.870Z,20.26
2023-04-23T16:46:11.203Z,20.19
2023-04-23T16:48:45.642Z,20.14
2023-04-23T16:51:18.274Z,20.06
2023-04-23T16:53:51.328Z,20.05
2023-04-23T16:56:25.288Z,19.97
2023-04-23T16:58:58.642Z,19.88
2023-04-23T17:01:32.856Z,19.79
2023-04-23T17:04:06.313Z,19.70
2023-04-23T17:06:40.597Z,19.57
2023-04-23T17:09:13.378Z,19.44
2023-04-23T17:11:45.954Z,19.31
2023-04-23T17:14:18.689Z,19.26
2023-04-23T17:16:51.391Z,19.06
2023-04-23T17:19:24.254Z,18.83
2023-04-23T17:21:57.175Z,18.68
2023-04-23T17:24:30.465Z,18.50
2023-04-23T17:27:04.733Z,18.25
2023-04-23T17:29:38.180Z,18.08
2023-04-23T17:32:11.865Z,17.90
2023-04-23T17:34:51.536Z,17.71
2023-04-23T17:37:29.856Z,17.52
2023-04-23T17:40:03.057Z,17.29
2023-04-23T17:42:36.939Z,17.12
2023-04-23T17:45:11.787Z,16.98
2023-04-23T17:47:44.877Z,16.85
2023-04-23T17:50:17.631Z,16.81
2023-04-23T17:52:50.348Z,16.82
2023-04-23T17:55:23.549Z,16.76
2023-04-23T17:57:54.379Z,16.64
2023-04-23T18:00:28.912Z,16.45
2023-04-23T18:03:04.010Z,16.45
2023-04-23T18:05:38.638Z,16.38
2023-04-23T18:08:12.288Z,16.39
2023-04-23T18:10:45.944Z,16.32
2023-04-23T18:13:19.391Z,16.20
2023-04-23T18:15:55.895Z,16.00
2023-04-23T18:18:29.956Z,15.84
2023-04-23T18:21:04.007Z,15.73
2023-04-23T18:23:38.187Z,15.91
2023-04-23T18:26:15.578Z,15.98
2023-04-23T18:28:52.244Z,16.01
2023-04-23T18:31:29.190Z,16.02
2023-04-23T18:34:14.014Z,15.94
2023-04-23T18:36:52.303Z,15.76
2023-04-23T18:39:26.099Z,15.64
2023-04-23T18:42:01.681Z,15.48
2023-04-23T18:44:35.694Z,15.37
2023-04-23T18:47:13.612Z,15.27
2023-04-23T18:49:55.169Z,15.27
2023-04-23T18:52:31.071Z,15.27
2023-04-23T18:55:07.439Z,15.20
2023-04-23T18:57:42.543Z,15.18
2023-04-23T19:00:19.712Z,15.14
2023-04-23T19:02:53.646Z,15.04
2023-04-23T19:05:24.464Z,14.97
2023-04-23T19:07:57.480Z,15.11
2023-04-23T19:10:30.975Z,15.23
2023-04-23T19:13:03.919Z,15.21
2023-04-23T19:15:37.290Z,15.17
2023-04-23T19:18:08.478Z,15.08
2023-04-23T19:20:41.226Z,14.96
2023-04-23T19:23:14.116Z,14.95
2023-04-23T19:25:49.154Z,14.97
2023-04-23T19:28:22.639Z,14.97
2023-04-23T19:30:55.975Z,14.94
2023-04-23T19:33:29.995Z,14.89
2023-04-23T19:36:02.916Z,14.82
2023-04-23T19:38:35.747Z,14.79
2023-04-23T19:41:10.125Z,14.79
2023-04-23T19:43:43.160Z,14.72
2023-04-23T19:46:16.161Z,14.63
2023-04-23T19:48:49.110Z,14.61
2023-04-23T19:51:25.496Z,14.57
2023-04-23T19:53:58.758Z,14.49
2023-04-23T19:56:31.520Z,14.41
2023-04-23T19:59:04.489Z,14.34
2023-04-23T20:01:37.757Z,14.32
2023-04-23T20:04:10.961Z,14.25
2023-04-23T20:06:42.337Z,14.21
2023-04-23T20:09:20.927Z,14.13
2023-04-23T20:11:53.617Z,14.15
2023-04-23T20:14:27.157Z,14.16
2023-04-23T20:16:59.923Z,14.14
2023-04-23T20:19:33.919Z,14.12
2023-04-23T20:22:07.198Z,14.06
2023-04-23T20:24:47.213Z,14.01
2023-04-23T20:27:19.814Z,13.92
2023-04-23T20:29:53.027Z,13.90
2023-04-23T20:32:25.514Z,13.89
2023-04-23T20:34:59.429Z,13.85
2023-04-23T20:37:32.201Z,13.83
2023-04-23T20:40:08.925Z,13.75
2023-04-23T20:42:42.659Z,13.62
2023-04-23T20:45:16.332Z,13.56
2023-04-23T20:47:48.978Z,13.51
2023-04-23T20:50:22.321Z,13.48
2023-04-23T20:52:56.071Z,13.38
2023-04-23T20:55:29.410Z,13.26
2023-04-23T20:57:59.977Z,13.14
2023-04-23T21:00:35.482Z,13.04
2023-04-23T21:03:08.210Z,13.03
2023-04-23T21:05:44.642Z,12.99
2023-04-23T21:08:17.519Z,12.91
2023-04-23T21:10:50.385Z,12.87
2023-04-23T21:13:23.004Z,12.87
2023-04-23T21:15:56.399Z,12.82
2023-04-23T21:18:27.185Z,12.77
2023-04-23T21:21:00.032Z,12.68
2023-04-23T21:23:34.301Z,12.77
2023-04-23T21:26:08.177Z,12.80
2023-04-23T21:28:41.370Z,12.83
2023-04-23T21:31:19.411Z,12.84
2023-04-23T21:33:51.932Z,12.83
2023-04-23T21:36:26.048Z,12.84
2023-04-23T21:39:00.270Z,12.82
2023-04-23T21:41:33.875Z,12.81
2023-04-23T21:44:06.137Z,12.82
2023-04-23T21:46:38.844Z,12.74
2023-04-23T21:49:11.668Z,12.74
2023-04-23T21:51:45.027Z,12.72
2023-04-23T21:54:17.590Z,12.68
2023-04-23T21:56:50.128Z,12.61
2023-04-23T21:59:23.956Z,12.54
2023-04-23T22:01:59.178Z,12.51
2023-04-23T22:04:32.386Z,12.44
2023-04-23T22:07:07.650Z,12.33
2023-04-23T22:09:40.750Z,12.21
2023-04-23T22:12:14.132Z,12.11
2023-04-23T22:14:47.073Z,11.99
2023-04-23T22:17:20.741Z,11.82
2023-04-23T22:19:53.596Z,11.69
2023-04-23T22:22:26.598Z,11.63
2023-04-23T22:24:59.157Z,11.57
2023-04-23T22:27:34.189Z,11.57
2023-04-23T22:30:09.603Z,11.54
2023-04-23T22:32:42.581Z,11.52
2023-04-23T22:35:15.512Z,11.48
2023-04-23T22:37:48.768Z,11.44
2023-04-23T22:40:21.951Z,11.44
2023-04-23T22:42:54.981Z,11.43
2023-04-23T22:45:27.638Z,11.43
2023-04-23T22:48:00.660Z,11.43
2023-04-23T22:50:33.262Z,11.42
2023-04-23T22:53:05.959Z,11.42
2023-04-23T22:55:38.685Z,11.40
2023-04-23T22:58:11.468Z,11.37
2023-04-23T23:00:45.565Z,11.34
2023-04-23T23:03:18.421Z,11.28
2023-04-23T23:05:51.325Z,11.21
2023-04-23T23:08:23.977Z,11.18
2023-04-23T23:10:57.098Z,11.14
2023-04-23T23:13:30.187Z,11.10
2023-04-23T23:16:04.947Z,11.02
2023-04-23T23:18:37.673Z,10.86
2023-04-23T23:21:10.390Z,10.85
2023-04-23T23:23:43.246Z,10.87
2023-04-23T23:26:16.408Z,10.89
2023-04-23T23:28:49.508Z,10.89
2023-04-23T23:31:22.236Z,10.90
2023-04-23T23:33:55.360Z,10.88
2023-04-23T23:36:28.176Z,10.83
2023-04-23T23:39:02.052Z,10.77
2023-04-23T23:41:32.997Z,10.72
2023-04-23T23:44:06.256Z,10.62
2023-04-23T23:46:39.607Z,10.62
2023-04-23T23:49:14.860Z,10.63
2023-04-23T23:51:47.511Z,10.57
2023-04-23T23:54:20.249Z,10.50
2023-04-23T23:56:53.009Z,10.46
2023-04-23T23:59:25.928Z,10.48
